Time;durP1;ratioP1;P1;durP2;ratioP2;P2;SDS_P1;SDS_P2;PMS_P1;PMS_P2;Temp;Humidity;BMP_temperature;BMP_pressure;BME280_temperature;BME280_humidity;BME280_pressure;Samples;Min_cycle;Max_cycle;Signal;HPM_P1;HPM_P2
2023/02/24 00:02:23;;;;;;;;;;;6.90;99.90;;;;;;4910526;29;19935;-64
2023/02/24 00:04:55;;;;;;;;;;;6.90;99.90;;;;;;4904618;29;19951;-64
2023/02/24 00:07:28;;;;;;;;;;;6.90;99.90;;;;;;4907622;29;19986;-64
2023/02/24 00:10:01;;;;;;;;;;;6.80;99.90;;;;;;4910766;29;19927;-68
2023/02/24 00:12:28;;;;;;;;;;;6.80;99.90;;;;;;4904418;29;20585;-65
2023/02/24 00:14:59;;;;;;;;;;;6.70;99.90;;;;;;4910347;29;19931;-64
2023/02/24 00:17:31;;;;;;;;;;;6.70;99.90;;;;;;4912808;29;19932;-66
2023/02/24 00:20:06;;;;;;;;;;;6.70;99.90;;;;;;4911479;29;19939;-64
2023/02/24 00:22:41;;;;;;;;;;;6.60;99.90;;;;;;4910434;29;19931;-63
2023/02/24 00:25:13;;;;;;;;;;;6.60;99.90;;;;;;4911198;29;20307;-64
2023/02/24 00:27:41;;;;;;;;;;;6.50;99.90;;;;;;4906469;29;19976;-65
2023/02/24 00:30:13;;;;;;;;;;;6.40;99.90;;;;;;4906703;29;19932;-64
2023/02/24 00:32:45;;;;;;;;;;;6.40;99.90;;;;;;4912161;29;19927;-64
2023/02/24 00:35:17;;;;;;;;;;;6.40;99.90;;;;;;4907002;29;19932;-65
2023/02/24 00:37:44;;;;;;;;;;;6.40;99.90;;;;;;4912424;29;20014;-64
2023/02/24 00:40:15;;;;;;;;;;;6.40;99.90;;;;;;4914004;29;19931;-64
2023/02/24 00:42:42;;;;;;;;;;;6.30;99.90;;;;;;4914723;29;19971;-64
2023/02/24 00:45:15;;;;;;;;;;;6.30;99.90;;;;;;4912365;29;19927;-65
2023/02/24 00:47:47;;;;;;;;;;;6.20;99.90;;;;;;4916087;29;19927;-64
2023/02/24 00:50:19;;;;;;;;;;;6.20;99.90;;;;;;4905815;29;19931;-64
2023/02/24 00:52:46;;;;;;;;;;;6.20;99.90;;;;;;4909546;29;19966;-64
2023/02/24 00:55:21;;;;;;;;;;;6.10;99.90;;;;;;4919951;29;20010;-64
2023/02/24 00:57:51;;;;;;;;;;;6.10;99.90;;;;;;4951063;23;19930;-67
2023/02/24 01:00:23;;;;;;;;;;;6.00;99.90;;;;;;4954171;29;19986;-67
2023/02/24 01:02:59;;;;;;;;;;;5.90;99.90;;;;;;4951163;29;19926;-66
2023/02/24 01:05:34;;;;;;;;;;;5.90;99.90;;;;;;4949785;29;20376;-66
2023/02/24 01:08:06;;;;;;;;;;;5.80;99.90;;;;;;4938501;29;19934;-67
2023/02/24 01:10:38;;;;;;;;;;;5.80;99.90;;;;;;4932998;29;19934;-67
2023/02/24 01:13:05;;;;;;;;;;;5.80;99.90;;;;;;4948859;29;20620;-66
2023/02/24 01:15:37;;;;;;;;;;;5.80;99.90;;;;;;4949113;29;19990;-67
2023/02/24 01:18:09;;;;;;;;;;;5.70;99.90;;;;;;4932069;29;20026;-67
2023/02/24 01:20:42;;;;;;;;;;;5.70;99.90;;;;;;4950067;29;20013;-67
2023/02/24 01:23:09;;;;;;;;;;;5.80;99.90;;;;;;4948017;29;19931;-67
2023/02/24 01:25:35;;;;;;;;;;;5.80;99.90;;;;;;4932534;29;19934;-66
2023/02/24 01:28:09;;;;;;;;;;;5.80;99.90;;;;;;4944966;28;19934;-67
2023/02/24 01:30:36;;;;;;;;;;;5.80;99.90;;;;;;4945364;29;19927;-67
2023/02/24 01:33:13;;;;;;;;;;;5.80;99.90;;;;;;4947434;28;19938;-66
2023/02/24 01:35:45;;;;;;;;;;;5.80;99.90;;;;;;4932768;29;19937;-66
2023/02/24 01:38:21;;;;;;;;;;;5.80;99.90;;;;;;4933902;29;20026;-66
2023/02/24 01:40:59;;;;;;;;;;;5.70;99.90;;;;;;4949246;29;19931;-66
2023/02/24 01:43:26;;;;;;;;;;;5.60;99.90;;;;;;4950517;28;19965;-66
2023/02/24 01:45:58;;;;;;;;;;;5.50;99.90;;;;;;4929740;29;19927;-66
2023/02/24 01:48:30;;;;;;;;;;;5.50;99.90;;;;;;4934468;29;19930;-67
2023/02/24 01:50:58;;;;;;;;;;;5.50;99.90;;;;;;4946350;28;19985;-67
2023/02/24 01:53:24;;;;;;;;;;;5.40;99.90;;;;;;4934333;29;20914;-67
2023/02/24 01:55:59;;;;;;;;;;;5.40;99.90;;;;;;4947009;29;20384;-67
2023/02/24 01:58:32;;;;;;;;;;;5.40;99.90;;;;;;4933027;29;19937;-67
2023/02/24 02:01:08;;;;;;;;;;;5.40;99.90;;;;;;4932849;29;20411;-66
2023/02/24 02:03:40;;;;;;;;;;;5.30;99.90;;;;;;4930535;29;19926;-67
2023/02/24 02:06:12;;;;;;;;;;;5.30;99.90;;;;;;4934821;29;20316;-66
2023/02/24 02:08:40;;;;;;;;;;;5.40;99.90;;;;;;4947117;29;19927;-66
2023/02/24 02:11:13;;;;;;;;;;;5.40;99.90;;;;;;4945742;29;20069;-66
2023/02/24 02:13:48;;;;;;;;;;;5.40;99.90;;;;;;4915474;29;19930;-66
2023/02/24 02:16:40;;;;;;;;;;;5.50;99.90;;;;;;4948745;29;19931;-66
2023/02/24 02:19:17;;;;;;;;;;;5.50;99.90;;;;;;4946333;29;19938;-67
2023/02/24 02:21:49;;;;;;;;;;;5.60;99.90;;;;;;4946619;29;19931;-66
2023/02/24 02:24:31;;;;;;;;;;;5.60;99.90;;;;;;4932314;29;20022;-65
2023/02/24 02:27:12;;;;;;;;;;;5.60;99.90;;;;;;4930532;29;19927;-66
2023/02/24 02:30:13;;;;;;;;;;;5.70;99.90;;;;;;4934087;29;19953;-66
2023/02/24 02:32:50;;;;;;;;;;;5.70;99.90;;;;;;4932999;29;19976;-66
2023/02/24 02:35:36;;;;;;;;;;;5.70;99.90;;;;;;4930595;29;20320;-66
2023/02/24 02:38:13;;;;;;;;;;;5.60;99.90;;;;;;4932078;29;19937;-65
2023/02/24 02:40:54;;;;;;;;;;;5.60;99.90;;;;;;4931710;29;20312;-66
2023/02/24 02:43:32;;;;;;;;;;;5.60;99.90;;;;;;4930357;29;20415;-66
2023/02/24 02:46:37;;;;;;;;;;;5.60;99.90;;;;;;4931871;29;19935;-66
2023/02/24 02:49:08;;;;;;;;;;;5.60;99.90;;;;;;4921439;29;19964;-65
2023/02/24 02:51:51;;;;;;;;;;;5.60;99.90;;;;;;4929489;29;19930;-65
2023/02/24 02:54:26;;;;;;;;;;;5.60;99.90;;;;;;4913539;29;20361;-66
2023/02/24 02:57:10;;;;;;;;;;;5.60;99.90;;;;;;4944927;28;19927;-66
2023/02/24 02:59:48;;;;;;;;;;;5.60;99.90;;;;;;4931954;29;19958;-66
2023/02/24 03:02:26;;;;;;;;;;;5.60;99.90;;;;;;4933160;29;19931;-66
2023/02/24 03:05:00;;;;;;;;;;;5.60;99.90;;;;;;4915821;29;19927;-66
2023/02/24 03:07:33;;;;;;;;;;;5.50;99.90;;;;;;4931449;29;19927;-66
2023/02/24 03:10:16;;;;;;;;;;;5.40;99.90;;;;;;4929863;29;19938;-66
2023/02/24 03:12:51;;;;;;;;;;;5.50;99.90;;;;;;4932884;29;20395;-66
2023/02/24 03:15:25;;;;;;;;;;;5.50;99.90;;;;;;4930537;29;20366;-66
2023/02/24 03:18:01;;;;;;;;;;;5.50;99.90;;;;;;4930222;29;19933;-66
2023/02/24 03:20:35;;;;;;;;;;;5.50;99.90;;;;;;4931556;29;20474;-66
2023/02/24 03:23:15;;;;;;;;;;;5.50;99.90;;;;;;4929206;29;19931;-66
2023/02/24 03:25:57;;;;;;;;;;;5.50;99.90;;;;;;4946766;29;20380;-66
2023/02/24 03:28:36;;;;;;;;;;;5.50;99.90;;;;;;4929454;29;19931;-65
2023/02/24 03:31:21;;;;;;;;;;;5.40;99.90;;;;;;4931406;29;19927;-66
2023/02/24 03:33:59;;;;;;;;;;;5.30;99.90;;;;;;4945822;29;19934;-66
2023/02/24 03:36:32;;;;;;;;;;;5.30;99.90;;;;;;4944618;28;19931;-65
2023/02/24 03:39:04;;;;;;;;;;;5.20;99.90;;;;;;4932910;29;19977;-65
2023/02/24 03:41:47;;;;;;;;;;;5.20;99.90;;;;;;4931563;29;19927;-65
2023/02/24 03:44:19;;;;;;;;;;;5.20;99.90;;;;;;4946563;29;20400;-66
2023/02/24 03:46:53;;;;;;;;;;;5.30;99.90;;;;;;4917965;29;19927;-66
2023/02/24 03:49:26;;;;;;;;;;;5.30;99.90;;;;;;4945603;29;19938;-66
2023/02/24 03:52:20;;;;;;;;;;;5.30;99.90;;;;;;4930351;29;19966;-65
2023/02/24 03:55:05;;;;;;;;;;;5.20;99.90;;;;;;4931317;29;19931;-65
2023/02/24 03:57:53;;;;;;;;;;;5.10;99.90;;;;;;4930123;29;19927;-66
2023/02/24 04:00:37;;;;;;;;;;;5.10;99.90;;;;;;4932385;29;19938;-66
2023/02/24 04:03:09;;;;;;;;;;;5.10;99.90;;;;;;4930168;29;19931;-66
2023/02/24 04:05:46;;;;;;;;;;;5.10;99.90;;;;;;4930115;29;19934;-66
2023/02/24 04:08:14;;;;;;;;;;;5.10;99.90;;;;;;4946626;29;19931;-66
2023/02/24 04:10:52;;;;;;;;;;;5.00;99.90;;;;;;4947390;29;19966;-66
2023/02/24 04:13:34;;;;;;;;;;;5.10;99.90;;;;;;4945095;29;19937;-66
2023/02/24 04:16:15;;;;;;;;;;;5.10;99.90;;;;;;4932748;29;19927;-66
2023/02/24 04:18:49;;;;;;;;;;;5.10;99.90;;;;;;4945385;28;20392;-66
2023/02/24 04:21:21;;;;;;;;;;;5.10;99.90;;;;;;4930049;29;20026;-66
2023/02/24 04:23:54;;;;;;;;;;;5.10;99.90;;;;;;4932670;29;19933;-66
2023/02/24 04:26:27;;;;;;;;;;;5.10;99.90;;;;;;4920808;29;20030;-66
2023/02/24 04:28:59;;;;;;;;;;;5.00;99.90;;;;;;4931429;29;19927;-66
2023/02/24 04:31:32;;;;;;;;;;;4.90;99.90;;;;;;4931257;29;19931;-66
2023/02/24 04:34:08;;;;;;;;;;;4.90;99.90;;;;;;4931873;29;20478;-66
2023/02/24 04:36:39;;;;;;;;;;;4.80;99.90;;;;;;4929434;29;19937;-66
2023/02/24 04:39:12;;;;;;;;;;;4.70;99.90;;;;;;4930570;29;19931;-66
2023/02/24 04:41:51;;;;;;;;;;;4.60;99.90;;;;;;4928165;29;20347;-66
2023/02/24 04:44:24;;;;;;;;;;;4.50;99.90;;;;;;4928424;29;19927;-66
2023/02/24 04:46:55;;;;;;;;;;;4.50;99.90;;;;;;4942276;29;20025;-66
2023/02/24 04:49:27;;;;;;;;;;;4.50;99.90;;;;;;4945262;29;19938;-65
2023/02/24 04:51:59;;;;;;;;;;;4.40;99.90;;;;;;4930806;29;19934;-66
2023/02/24 04:54:31;;;;;;;;;;;4.40;99.90;;;;;;4930973;29;19930;-65
2023/02/24 04:57:05;;;;;;;;;;;4.40;99.90;;;;;;4931949;29;19986;-66
2023/02/24 04:59:37;;;;;;;;;;;4.50;99.90;;;;;;4931153;29;20281;-66
2023/02/24 05:02:09;;;;;;;;;;;4.50;99.90;;;;;;4930742;29;19978;-66
2023/02/24 05:04:40;;;;;;;;;;;4.50;99.90;;;;;;4930595;29;20458;-65
2023/02/24 05:07:14;;;;;;;;;;;4.60;99.90;;;;;;4928480;29;19936;-66
2023/02/24 05:09:41;;;;;;;;;;;4.60;99.90;;;;;;4944270;29;19937;-65
2023/02/24 05:12:13;;;;;;;;;;;4.60;99.90;;;;;;4945217;29;20368;-65
2023/02/24 05:14:48;;;;;;;;;;;4.60;99.90;;;;;;4929299;29;19982;-65
2023/02/24 05:17:19;;;;;;;;;;;4.70;99.90;;;;;;4941613;29;19927;-65
2023/02/24 05:22:41;;;;;;;;;;;4.70;99.90;;;;;;4930596;29;19927;-66
2023/02/24 05:25:13;;;;;;;;;;;4.70;99.90;;;;;;4946161;29;20395;-66
2023/02/24 05:27:46;;;;;;;;;;;4.60;99.90;;;;;;4935149;29;19982;-65
2023/02/24 05:30:13;;;;;;;;;;;4.60;99.90;;;;;;4932791;29;19930;-66
2023/02/24 05:32:45;;;;;;;;;;;4.60;99.90;;;;;;4931733;29;19927;-66
2023/02/24 05:35:18;;;;;;;;;;;4.60;99.90;;;;;;4948206;28;19930;-65
2023/02/24 05:37:50;;;;;;;;;;;4.70;99.90;;;;;;4933828;29;20407;-65
2023/02/24 05:40:23;;;;;;;;;;;4.70;99.90;;;;;;4933674;29;19982;-66
2023/02/24 05:42:50;;;;;;;;;;;4.60;99.90;;;;;;4932399;29;20403;-66
2023/02/24 05:45:23;;;;;;;;;;;4.60;99.90;;;;;;4947807;29;19927;-66
2023/02/24 05:47:55;;;;;;;;;;;4.60;99.90;;;;;;4934332;29;19927;-66
2023/02/24 05:50:27;;;;;;;;;;;4.60;99.90;;;;;;4930357;29;19931;-66
2023/02/24 05:53:00;;;;;;;;;;;4.60;99.90;;;;;;4932893;29;20360;-66
2023/02/24 05:55:32;;;;;;;;;;;4.50;99.90;;;;;;4935435;29;20617;-66
2023/02/24 05:58:06;;;;;;;;;;;4.40;99.90;;;;;;4933116;29;19935;-67
2023/02/24 06:00:37;;;;;;;;;;;4.40;99.90;;;;;;4933451;29;19928;-66
2023/02/24 06:03:09;;;;;;;;;;;4.40;99.90;;;;;;4933513;29;19931;-66
2023/02/24 06:05:42;;;;;;;;;;;4.40;99.90;;;;;;4949882;29;20352;-66
2023/02/24 06:08:14;;;;;;;;;;;4.30;99.90;;;;;;4932349;29;19982;-66
2023/02/24 06:10:40;;;;;;;;;;;4.30;99.90;;;;;;4932995;29;19937;-66
2023/02/24 06:13:12;;;;;;;;;;;4.30;99.90;;;;;;4930746;29;19926;-66
2023/02/24 06:15:40;;;;;;;;;;;4.30;99.90;;;;;;4933400;29;19927;-66
2023/02/24 06:18:12;;;;;;;;;;;4.30;99.90;;;;;;4931478;29;20300;-66
2023/02/24 06:20:49;;;;;;;;;;;4.30;99.90;;;;;;4930227;29;19982;-66
2023/02/24 06:23:25;;;;;;;;;;;4.20;99.90;;;;;;4932636;29;19927;-66
2023/02/24 06:26:00;;;;;;;;;;;4.20;99.90;;;;;;4948562;29;19931;-66
2023/02/24 06:28:32;;;;;;;;;;;4.20;99.90;;;;;;4935444;29;19994;-66
2023/02/24 06:31:07;;;;;;;;;;;4.20;99.90;;;;;;4945385;29;19986;-66
2023/02/24 06:33:39;;;;;;;;;;;4.20;99.90;;;;;;4932335;29;19995;-66
2023/02/24 06:36:13;;;;;;;;;;;4.20;99.90;;;;;;4918296;29;19950;-66
2023/02/24 06:38:45;;;;;;;;;;;4.20;99.90;;;;;;4932096;29;19960;-66
2023/02/24 06:41:17;;;;;;;;;;;4.10;99.90;;;;;;4931553;29;19934;-66
2023/02/24 06:43:50;;;;;;;;;;;4.10;99.90;;;;;;4931767;29;19926;-66
2023/02/24 06:46:24;;;;;;;;;;;4.10;99.90;;;;;;4946856;29;19926;-66
2023/02/24 06:48:56;;;;;;;;;;;4.10;99.90;;;;;;4934256;29;19930;-66
2023/02/24 06:51:29;;;;;;;;;;;4.20;99.90;;;;;;4932349;29;20322;-66
2023/02/24 06:54:01;;;;;;;;;;;4.30;99.90;;;;;;4927926;29;20458;-66
2023/02/24 06:56:37;;;;;;;;;;;4.30;99.90;;;;;;4929557;29;19937;-66
2023/02/24 06:59:11;;;;;;;;;;;4.40;99.90;;;;;;4944947;29;20022;-66
2023/02/24 07:01:46;;;;;;;;;;;4.50;99.90;;;;;;4933571;29;20001;-66
2023/02/24 07:04:19;;;;;;;;;;;4.50;99.90;;;;;;4931195;29;20407;-66
2023/02/24 07:07:01;;;;;;;;;;;4.50;99.90;;;;;;4934254;29;19931;-65
2023/02/24 07:09:35;;;;;;;;;;;4.50;99.90;;;;;;4931725;29;21278;-66
2023/02/24 07:12:09;;;;;;;;;;;4.60;99.90;;;;;;4932650;29;19931;-65
2023/02/24 07:14:41;;;;;;;;;;;4.60;99.90;;;;;;4931633;29;19927;-65
2023/02/24 07:17:13;;;;;;;;;;;4.60;99.90;;;;;;4943821;29;19926;-66
2023/02/24 07:19:45;;;;;;;;;;;4.70;99.90;;;;;;4931990;29;19966;-66
2023/02/24 07:22:14;;;;;;;;;;;4.60;99.90;;;;;;4944951;29;19926;-65
2023/02/24 07:24:45;;;;;;;;;;;4.70;99.90;;;;;;4931742;29;19935;-65
2023/02/24 07:27:26;;;;;;;;;;;4.80;99.90;;;;;;4939679;29;19934;-65
2023/02/24 07:29:58;;;;;;;;;;;4.90;99.90;;;;;;4934058;29;19927;-66
2023/02/24 07:32:30;;;;;;;;;;;4.90;99.90;;;;;;4930333;29;19927;-65
2023/02/24 07:35:03;;;;;;;;;;;5.00;99.90;;;;;;4933824;29;20315;-65
2023/02/24 07:37:35;;;;;;;;;;;5.10;99.90;;;;;;4929408;29;19983;-65
2023/02/24 07:40:08;;;;;;;;;;;5.10;99.90;;;;;;4929220;29;19946;-65
2023/02/24 07:42:34;;;;;;;;;;;5.20;99.90;;;;;;4928344;29;19927;-65
2023/02/24 07:45:07;;;;;;;;;;;5.30;99.90;;;;;;4932358;29;19927;-64
2023/02/24 07:47:34;;;;;;;;;;;5.40;99.90;;;;;;4930009;29;19927;-65
2023/02/24 07:50:12;;;;;;;;;;;5.50;99.90;;;;;;4946433;28;19926;-65
2023/02/24 07:52:39;;;;;;;;;;;5.50;99.90;;;;;;4933042;29;19935;-66
2023/02/24 07:55:07;;;;;;;;;;;5.50;99.90;;;;;;4931277;29;20410;-65
2023/02/24 07:57:36;;;;;;;;;;;5.50;99.90;;;;;;4930975;29;19931;-65
2023/02/24 08:00:27;;;;;;;;;;;5.50;99.90;;;;;;4930376;29;19934;-65
2023/02/24 08:02:59;;;;;;;;;;;5.60;99.90;;;;;;4927860;29;19931;-65
2023/02/24 08:05:32;;;;;;;;;;;5.60;99.90;;;;;;4930499;29;19930;-65
2023/02/24 08:08:05;;;;;;;;;;;5.70;99.90;;;;;;4945064;28;19966;-65
2023/02/24 08:10:39;;;;;;;;;;;5.70;99.90;;;;;;4931081;29;19934;-65
2023/02/24 08:13:11;;;;;;;;;;;5.70;99.90;;;;;;4945384;29;19937;-65
2023/02/24 08:15:38;;;;;;;;;;;5.80;99.90;;;;;;4931800;29;20396;-65
2023/02/24 08:18:11;;;;;;;;;;;5.80;99.90;;;;;;4929112;29;20400;-65
2023/02/24 08:20:52;;;;;;;;;;;5.80;99.90;;;;;;4932007;29;19933;-65
2023/02/24 08:23:22;;;;;;;;;;;5.90;99.90;;;;;;4942568;29;19927;-65
2023/02/24 08:25:54;;;;;;;;;;;6.00;99.90;;;;;;4932384;29;19930;-65
2023/02/24 08:28:27;;;;;;;;;;;6.00;99.90;;;;;;4929781;29;19935;-65
2023/02/24 08:31:03;;;;;;;;;;;6.10;99.90;;;;;;4932131;29;19938;-65
2023/02/24 08:33:30;;;;;;;;;;;6.10;99.90;;;;;;4929403;29;19937;-64
2023/02/24 08:36:01;;;;;;;;;;;6.20;99.90;;;;;;4932263;29;20392;-66
2023/02/24 08:38:38;;;;;;;;;;;6.20;99.90;;;;;;4946204;28;19973;-65
2023/02/24 08:41:16;;;;;;;;;;;6.30;99.90;;;;;;4929485;29;19982;-65
2023/02/24 08:43:48;;;;;;;;;;;6.30;99.90;;;;;;4931477;29;19927;-65
2023/02/24 08:46:24;;;;;;;;;;;6.40;99.90;;;;;;4928114;29;19933;-65
2023/02/24 08:48:54;;;;;;;;;;;6.40;99.90;;;;;;4930477;29;19931;-65
2023/02/24 08:51:33;;;;;;;;;;;6.50;99.90;;;;;;4943511;29;19933;-66
2023/02/24 08:54:09;;;;;;;;;;;6.50;99.90;;;;;;4930367;29;19927;-65
2023/02/24 08:56:42;;;;;;;;;;;6.50;99.90;;;;;;4929194;29;19927;-66
2023/02/24 08:59:27;;;;;;;;;;;6.60;99.90;;;;;;4932111;29;19995;-65
2023/02/24 09:02:17;;;;;;;;;;;6.70;99.90;;;;;;4931602;29;19931;-65
2023/02/24 09:04:53;;;;;;;;;;;6.90;99.90;;;;;;4935148;29;19953;-65
2023/02/24 09:07:27;;;;;;;;;;;7.00;99.90;;;;;;4930922;29;19927;-65
2023/02/24 09:10:04;;;;;;;;;;;7.10;99.90;;;;;;4936260;29;19930;-65
2023/02/24 09:12:40;;;;;;;;;;;7.20;99.90;;;;;;4947557;29;19934;-66
2023/02/24 09:15:14;;;;;;;;;;;7.30;99.90;;;;;;4934276;29;19937;-66
2023/02/24 09:23:18;;;;;;;;;;;7.60;99.90;;;;;;4933537;29;20315;-65
2023/02/24 09:25:53;;;;;;;;;;;7.70;99.90;;;;;;4932753;29;19926;-64
2023/02/24 09:28:26;;;;;;;;;;;7.70;99.90;;;;;;4932949;29;19927;-65
2023/02/24 09:30:59;;;;;;;;;;;7.70;99.90;;;;;;4933403;29;19982;-66
2023/02/24 09:33:37;;;;;;;;;;;7.80;99.90;;;;;;4933074;29;19927;-67
2023/02/24 09:36:26;;;;;;;;;;;7.90;99.90;;;;;;4931632;29;19934;-65
2023/02/24 09:41:52;;;;;;;;;;;8.00;99.90;;;;;;4947709;29;20661;-65
2023/02/24 09:44:34;;;;;;;;;;;8.10;99.90;;;;;;4933883;29;20000;-65
2023/02/24 09:47:09;;;;;;;;;;;8.20;99.90;;;;;;4932460;29;20458;-65
2023/02/24 09:49:45;;;;;;;;;;;8.30;99.90;;;;;;4933441;29;19926;-65
2023/02/24 09:52:17;;;;;;;;;;;8.40;99.90;;;;;;4931041;29;19934;-65
2023/02/24 09:55:23;;;;;;;;;;;8.50;99.90;;;;;;4933959;29;20092;-65
2023/02/24 10:01:20;;;;;;;;;;;8.50;99.90;;;;;;4915113;29;19966;-64
2023/02/24 10:03:52;;;;;;;;;;;8.60;99.90;;;;;;4915076;29;19927;-65
2023/02/24 10:06:34;;;;;;;;;;;8.60;99.90;;;;;;4926906;29;19987;-65
2023/02/24 10:09:11;;;;;;;;;;;8.60;99.90;;;;;;4936177;29;19973;-65
2023/02/24 10:11:54;;;;;;;;;;;8.70;99.90;;;;;;4931391;29;19927;-66
2023/02/24 10:14:37;;;;;;;;;;;8.70;99.90;;;;;;4929443;29;19926;-66
2023/02/24 10:17:24;;;;;;;;;;;8.70;99.90;;;;;;4943551;29;19942;-65
2023/02/24 10:20:01;;;;;;;;;;;8.80;99.90;;;;;;4933774;29;20060;-65
2023/02/24 10:22:39;;;;;;;;;;;8.80;99.90;;;;;;4932221;29;19927;-65
2023/02/24 10:25:17;;;;;;;;;;;8.90;99.90;;;;;;4933256;29;19927;-64
2023/02/24 10:27:58;;;;;;;;;;;8.90;99.90;;;;;;4930650;29;20014;-65
2023/02/24 10:30:26;;;;;;;;;;;9.00;99.90;;;;;;4933838;29;19933;-65
2023/02/24 10:33:00;;;;;;;;;;;9.10;99.90;;;;;;4932760;29;19933;-65
2023/02/24 10:35:32;;;;;;;;;;;9.30;99.90;;;;;;4932008;29;19934;-65
2023/02/24 10:38:04;;;;;;;;;;;9.20;99.90;;;;;;4932089;29;19930;-66
2023/02/24 10:40:45;;;;;;;;;;;9.20;99.90;;;;;;4930868;29;19927;-66
2023/02/24 10:43:18;;;;;;;;;;;9.10;99.90;;;;;;4933006;29;19927;-65
2023/02/24 10:46:04;;;;;;;;;;;9.10;99.90;;;;;;4929520;29;20425;-65
2023/02/24 10:48:42;;;;;;;;;;;9.10;99.90;;;;;;4933140;29;19927;-65
2023/02/24 10:51:29;;;;;;;;;;;9.20;99.90;;;;;;4932187;29;19934;-65
2023/02/24 10:54:24;;;;;;;;;;;9.10;99.90;;;;;;4932665;29;19931;-64
2023/02/24 10:57:06;;;;;;;;;;;9.20;99.90;;;;;;4931103;29;19931;-65
2023/02/24 11:00:18;;;;;;;;;;;9.30;99.90;;;;;;4929625;29;21184;-65
2023/02/24 11:02:56;;;;;;;;;;;9.30;99.90;;;;;;4947406;29;19942;-65
2023/02/24 11:05:55;;;;;;;;;;;9.40;99.90;;;;;;4931421;29;19931;-67
2023/02/24 11:08:53;;;;;;;;;;;9.50;99.90;;;;;;4945901;29;19927;-65
2023/02/24 11:11:29;;;;;;;;;;;9.60;99.90;;;;;;4931847;29;19926;-65
2023/02/24 11:19:48;;;;;;;;;;;9.70;99.90;;;;;;4929452;29;19927;-65
2023/02/24 11:22:18;;;;;;;;;;;9.70;99.90;;;;;;4932153;29;19927;-64
2023/02/24 11:24:46;;;;;;;;;;;9.70;99.90;;;;;;4928661;29;20033;-65
2023/02/24 11:27:19;;;;;;;;;;;9.70;99.90;;;;;;4931457;29;19934;-65
2023/02/24 11:29:52;;;;;;;;;;;9.70;99.90;;;;;;4932077;29;20296;-65
2023/02/24 11:32:39;;;;;;;;;;;9.60;99.90;;;;;;4931973;29;20471;-66
2023/02/24 11:35:05;;;;;;;;;;;9.60;99.90;;;;;;4930444;29;19927;-66
2023/02/24 11:37:56;;;;;;;;;;;9.70;99.90;;;;;;4932040;29;20360;-66
2023/02/24 11:40:31;;;;;;;;;;;9.60;99.90;;;;;;4933353;29;20026;-65
2023/02/24 11:43:03;;;;;;;;;;;9.70;99.90;;;;;;4929669;29;19938;-65
2023/02/24 11:45:49;;;;;;;;;;;9.60;99.90;;;;;;4945077;29;19927;-65
2023/02/24 11:48:27;;;;;;;;;;;9.60;99.90;;;;;;4929047;29;20308;-66
2023/02/24 11:51:19;;;;;;;;;;;9.60;99.90;;;;;;4932908;29;19981;-65
2023/02/24 11:53:54;;;;;;;;;;;9.60;99.90;;;;;;4945221;29;20400;-65
2023/02/24 11:56:32;;;;;;;;;;;9.60;99.90;;;;;;4917393;29;20399;-65
2023/02/24 11:59:11;;;;;;;;;;;9.60;99.90;;;;;;4931769;29;20515;-64
2023/02/24 12:01:43;;;;;;;;;;;9.50;99.90;;;;;;4948648;29;20387;-65
2023/02/24 12:04:34;;;;;;;;;;;9.50;99.90;;;;;;4941977;29;19930;-65
2023/02/24 12:07:11;;;;;;;;;;;9.50;99.90;;;;;;4932771;29;19926;-65
2023/02/24 12:09:43;;;;;;;;;;;9.40;99.90;;;;;;4928500;29;19927;-65
2023/02/24 12:12:22;;;;;;;;;;;9.40;99.90;;;;;;4931830;29;19981;-65
2023/02/24 12:14:59;;;;;;;;;;;9.40;99.90;;;;;;4932007;29;19931;-65
2023/02/24 12:17:37;;;;;;;;;;;9.50;99.90;;;;;;4929545;29;19933;-65
2023/02/24 12:20:39;;;;;;;;;;;9.50;99.90;;;;;;4930536;29;19985;-64
2023/02/24 12:23:16;;;;;;;;;;;9.50;99.90;;;;;;4917916;29;19937;-65
2023/02/24 12:25:52;;;;;;;;;;;9.50;99.90;;;;;;4932730;29;20003;-66
2023/02/24 12:28:27;;;;;;;;;;;9.50;99.90;;;;;;4929170;29;19927;-65
2023/02/24 12:31:20;;;;;;;;;;;9.60;99.90;;;;;;4932273;29;20025;-66
2023/02/24 12:33:54;;;;;;;;;;;9.60;99.90;;;;;;4928962;29;20463;-65
2023/02/24 12:36:45;;;;;;;;;;;9.60;99.90;;;;;;4929586;29;19927;-65
2023/02/24 12:39:33;;;;;;;;;;;9.60;99.90;;;;;;4928986;29;19974;-65
2023/02/24 12:42:02;;;;;;;;;;;9.70;99.90;;;;;;4932969;29;19926;-65
2023/02/24 12:44:35;;;;;;;;;;;9.70;99.90;;;;;;4944591;29;19927;-65
2023/02/24 12:47:05;;;;;;;;;;;9.80;99.90;;;;;;4932058;29;19927;-65
2023/02/24 12:49:44;;;;;;;;;;;9.80;99.90;;;;;;4930140;29;19965;-65
2023/02/24 12:52:23;;;;;;;;;;;9.80;99.90;;;;;;4929100;29;19978;-65
2023/02/24 12:55:12;;;;;;;;;;;10.00;99.90;;;;;;4928937;29;20396;-64
2023/02/24 12:57:58;;;;;;;;;;;10.00;99.90;;;;;;4928655;29;19931;-65
2023/02/24 13:00:45;;;;;;;;;;;10.00;99.90;;;;;;4946086;23;19978;-62
2023/02/24 13:03:35;;;;;;;;;;;9.90;99.90;;;;;;4955398;28;20005;-62
2023/02/24 13:06:26;;;;;;;;;;;10.00;99.90;;;;;;4953242;28;19934;-62
2023/02/24 13:09:07;;;;;;;;;;;10.00;99.90;;;;;;4951976;29;20413;-63
2023/02/24 13:11:39;;;;;;;;;;;10.00;99.90;;;;;;4950692;28;20009;-63
2023/02/24 13:14:14;;;;;;;;;;;9.90;99.90;;;;;;4933352;29;19927;-63
2023/02/24 13:16:45;;;;;;;;;;;9.90;99.90;;;;;;4939800;29;19927;-63
2023/02/24 13:19:18;;;;;;;;;;;9.90;99.90;;;;;;4945382;28;20294;-63
2023/02/24 13:22:02;;;;;;;;;;;9.90;99.90;;;;;;4937626;29;19926;-63
2023/02/24 13:24:30;;;;;;;;;;;9.80;99.90;;;;;;4935972;29;19930;-62
2023/02/24 13:27:06;;;;;;;;;;;9.80;99.90;;;;;;4944974;29;20423;-63
2023/02/24 13:29:45;;;;;;;;;;;9.80;99.90;;;;;;4943603;29;19935;-63
2023/02/24 13:32:21;;;;;;;;;;;9.90;99.90;;;;;;4941774;29;19937;-63
2023/02/24 13:34:54;;;;;;;;;;;9.90;99.90;;;;;;4936865;29;19930;-63
2023/02/24 13:37:34;;;;;;;;;;;9.80;99.90;;;;;;4943526;28;19931;-63
2023/02/24 13:40:15;;;;;;;;;;;9.90;99.90;;;;;;4933366;29;19966;-63
2023/02/24 13:42:58;;;;;;;;;;;9.80;99.90;;;;;;4939070;29;20467;-63
2023/02/24 13:45:32;;;;;;;;;;;9.80;99.90;;;;;;4931748;29;19926;-63
2023/02/24 13:48:12;;;;;;;;;;;9.70;99.90;;;;;;4947377;29;19926;-63
2023/02/24 13:50:53;;;;;;;;;;;9.70;99.90;;;;;;4950819;28;19938;-63
2023/02/24 13:53:31;;;;;;;;;;;9.80;99.90;;;;;;4943333;29;19930;-63
2023/02/24 13:56:03;;;;;;;;;;;9.80;99.90;;;;;;4943347;29;19926;-63
2023/02/24 13:58:38;;;;;;;;;;;9.80;99.90;;;;;;4945490;29;19936;-63
2023/02/24 14:01:12;;;;;;;;;;;9.80;99.90;;;;;;4934732;29;19934;-63
2023/02/24 14:03:59;;;;;;;;;;;9.80;99.90;;;;;;4945595;29;20006;-63
2023/02/24 14:06:31;;;;;;;;;;;9.80;99.90;;;;;;4950025;28;19957;-63
2023/02/24 14:09:04;;;;;;;;;;;9.80;99.90;;;;;;4942427;29;19927;-63
2023/02/24 14:11:35;;;;;;;;;;;9.80;99.90;;;;;;4949888;29;19936;-63
2023/02/24 14:14:13;;;;;;;;;;;9.80;99.90;;;;;;4948939;28;19926;-63
2023/02/24 14:16:48;;;;;;;;;;;9.80;99.90;;;;;;4941413;29;19931;-63
2023/02/24 14:19:19;;;;;;;;;;;9.90;99.90;;;;;;4943859;29;19930;-62
2023/02/24 14:21:52;;;;;;;;;;;9.90;99.90;;;;;;4936014;29;19938;-63
2023/02/24 14:24:28;;;;;;;;;;;9.80;99.90;;;;;;4945130;29;19933;-63
2023/02/24 14:27:00;;;;;;;;;;;9.90;99.90;;;;;;4948008;29;20430;-63
2023/02/24 14:29:31;;;;;;;;;;;9.90;99.90;;;;;;4950338;28;19926;-63
2023/02/24 14:32:03;;;;;;;;;;;9.80;99.90;;;;;;4942069;29;19962;-63
2023/02/24 14:34:35;;;;;;;;;;;9.80;99.90;;;;;;4947505;29;20391;-63
2023/02/24 14:37:15;;;;;;;;;;;9.80;99.90;;;;;;4947858;28;19938;-63
2023/02/24 14:39:51;;;;;;;;;;;9.80;99.90;;;;;;4942713;29;19985;-63
2023/02/24 14:42:25;;;;;;;;;;;9.80;99.90;;;;;;4940121;29;20422;-61
2023/02/24 14:44:58;;;;;;;;;;;9.90;99.90;;;;;;4946762;29;20406;-63
2023/02/24 14:47:32;;;;;;;;;;;9.80;99.90;;;;;;4935936;29;19934;-64
2023/02/24 14:50:04;;;;;;;;;;;9.80;99.90;;;;;;4934753;29;19986;-63
2023/02/24 14:52:47;;;;;;;;;;;9.80;99.90;;;;;;4953082;28;19927;-63
2023/02/24 14:55:20;;;;;;;;;;;9.80;99.90;;;;;;4944114;29;19937;-63
2023/02/24 14:57:52;;;;;;;;;;;9.80;99.90;;;;;;4951802;29;19973;-63
2023/02/24 15:00:29;;;;;;;;;;;9.80;99.90;;;;;;4936739;29;20017;-63
2023/02/24 15:03:21;;;;;;;;;;;9.80;99.90;;;;;;4935868;29;20391;-63
2023/02/24 15:05:51;;;;;;;;;;;9.80;99.90;;;;;;4912829;29;19930;-63
2023/02/24 15:08:28;;;;;;;;;;;9.70;99.90;;;;;;4942988;29;19959;-63
2023/02/24 15:11:03;;;;;;;;;;;9.70;99.90;;;;;;4943674;29;19997;-63
2023/02/24 15:13:37;;;;;;;;;;;9.70;99.90;;;;;;4947832;29;20347;-63
2023/02/24 15:16:11;;;;;;;;;;;9.70;99.90;;;;;;4941256;29;20303;-63
2023/02/24 15:18:43;;;;;;;;;;;9.70;99.90;;;;;;4945852;29;19930;-63
2023/02/24 15:21:35;;;;;;;;;;;9.70;99.90;;;;;;4952782;28;19934;-63
2023/02/24 15:24:23;;;;;;;;;;;9.70;99.90;;;;;;4935222;29;19926;-63
2023/02/24 15:26:56;;;;;;;;;;;9.70;99.90;;;;;;4941528;29;19982;-63
2023/02/24 15:29:29;;;;;;;;;;;9.70;99.90;;;;;;4947813;28;19931;-63
2023/02/24 15:32:02;;;;;;;;;;;9.70;99.90;;;;;;4945747;29;19974;-63
2023/02/24 15:34:35;;;;;;;;;;;9.70;99.90;;;;;;4944904;29;19935;-63
2023/02/24 15:37:19;;;;;;;;;;;9.60;99.90;;;;;;4937496;29;19933;-63
2023/02/24 15:39:59;;;;;;;;;;;9.60;99.90;;;;;;4941916;29;20377;-63